Time;durP1;ratioP1;P1;durP2;ratioP2;P2;SDS_P1;SDS_P2;PMS_P1;PMS_P2;Temp;Humidity;BMP_temperature;BMP_pressure;BME280_temperature;BME280_humidity;BME280_pressure;Samples;Min_cycle;Max_cycle;Signal;HPM_P1;HPM_P2
2021/12/07 00:37:14;;;;;;;15.90;4.18;;;2.90;99.90;;;;;;4941251;29;20056;-95
2021/12/07 00:39:44;;;;;;;10.85;3.00;;;2.80;99.90;;;;;;4938971;29;20035;-95
2021/12/07 00:42:13;;;;;;;16.75;3.70;;;2.80;99.90;;;;;;4939933;29;20035;-96
2021/12/07 00:44:51;;;;;;;18.33;3.53;;;2.80;99.90;;;;;;4941039;29;20542;-95
2021/12/07 00:52:54;;;;;;;18.00;2.90;;;2.70;99.90;;;;;;5445840;23;20055;-94
2021/12/07 00:55:27;;;;;;;11.85;2.92;;;2.70;99.90;;;;;;4939867;29;20059;-95
2021/12/07 00:58:00;;;;;;;18.55;3.70;;;2.70;99.90;;;;;;5192914;23;20119;-96
2021/12/07 01:00:33;;;;;;;11.82;2.88;;;2.70;99.90;;;;;;4922622;29;20035;-94
2021/12/07 01:03:02;;;;;;;9.93;2.78;;;2.70;99.90;;;;;;4923636;29;20027;-95
2021/12/07 01:25:33;;;;;;;8.27;2.08;;;2.70;99.90;;;;;;5019750;23;20135;-94
2021/12/07 01:28:12;;;;;;;8.70;2.08;;;2.60;99.90;;;;;;5221572;23;20031;-95
2021/12/07 01:49:54;;;;;;;12.95;2.40;;;2.60;99.90;;;;;;4926347;29;20098;-95
2021/12/07 01:59:51;;;;;;;12.73;2.38;;;2.50;99.90;;;;;;4935292;29;20043;-95
2021/12/07 02:02:20;;;;;;;18.48;3.03;;;2.50;99.90;;;;;;4915513;29;20036;-94
2021/12/07 02:04:58;;;;;;;10.30;1.92;;;2.40;99.90;;;;;;4923222;29;20116;-94
2021/12/07 02:07:47;;;;;;;10.38;2.00;;;2.40;99.90;;;;;;4918060;29;20184;-94
2021/12/07 02:16:00;;;;;;;7.70;2.05;;;2.40;99.90;;;;;;5593244;23;19939;-94
2021/12/07 02:19:34;;;;;;;12.05;2.10;;;2.40;99.90;;;;;;4938254;29;20032;-96
2021/12/07 02:22:13;;;;;;;8.60;1.88;;;2.30;99.90;;;;;;4924968;29;20024;-95
2021/12/07 02:24:48;;;;;;;15.48;2.30;;;2.30;99.90;;;;;;4939256;29;20036;-94
2021/12/07 02:27:25;;;;;;;11.25;2.33;;;2.30;99.90;;;;;;4919758;29;20047;-94
2021/12/07 02:29:54;;;;;;;11.30;2.28;;;2.30;99.90;;;;;;4922309;29;20043;-95
2021/12/07 02:32:33;;;;;;;15.95;1.75;;;2.30;99.90;;;;;;4919813;29;20047;-94
2021/12/07 02:35:00;;;;;;;18.52;2.40;;;2.30;99.90;;;;;;4949339;29;20034;-92
2021/12/07 02:37:43;;;;;;;10.30;1.75;;;2.30;99.90;;;;;;4938502;29;20024;-94
2021/12/07 02:40:11;;;;;;;7.95;2.03;;;2.20;99.90;;;;;;4940753;29;20064;-94
2021/12/07 02:42:47;;;;;;;18.73;2.60;;;2.20;99.90;;;;;;4938741;29;20036;-95
2021/12/07 02:48:25;;;;;;;20.38;3.85;;;2.10;99.90;;;;;;4957031;29;20118;-94
2021/12/07 02:51:06;;;;;;;11.80;1.83;;;2.10;99.90;;;;;;4943046;29;20026;-93
2021/12/07 02:53:38;;;;;;;;;;;2.20;99.90;;;;;;4943362;29;20027;-94
2021/12/07 02:56:58;;;;;;;11.32;1.92;;;2.20;99.90;;;;;;4952508;29;19946;-96
2021/12/07 03:00:14;;;;;;;11.90;1.33;;;2.20;99.90;;;;;;4943154;29;20008;-95
2021/12/07 03:27:54;;;;;;;9.68;1.55;;;2.10;99.90;;;;;;4943384;29;20090;-94
2021/12/07 03:30:26;;;;;;;7.28;1.55;;;2.20;99.90;;;;;;4928300;29;20031;-95
2021/12/07 03:32:52;;;;;;;15.57;2.00;;;2.10;99.90;;;;;;4926973;29;20028;-94
2021/12/07 03:35:19;;;;;;;10.48;1.80;;;2.20;99.90;;;;;;4913668;29;20032;-94
2021/12/07 03:37:45;;;;;;;16.75;2.50;;;2.20;99.90;;;;;;4909109;29;20036;-93
2021/12/07 03:40:17;;;;;;;10.95;1.95;;;2.20;99.90;;;;;;4912424;29;20052;-95
2021/12/07 03:42:43;;;;;;;12.52;2.17;;;2.20;99.90;;;;;;4912628;29;20063;-93
2021/12/07 03:45:13;;;;;;;16.58;1.98;;;2.20;99.90;;;;;;4912809;29;20012;-94
2021/12/07 03:47:41;;;;;;;21.20;3.23;;;2.10;99.90;;;;;;4910160;29;20039;-95
2021/12/07 03:50:12;;;;;;;8.50;2.10;;;2.10;99.90;;;;;;4910799;29;20032;-94
2021/12/07 03:52:38;;;;;;;5.82;1.33;;;2.10;99.90;;;;;;4919001;29;20032;-95
2021/12/07 03:55:06;;;;;;;11.43;1.40;;;2.10;99.90;;;;;;4911599;29;20063;-95
2021/12/07 03:57:32;;;;;;;8.75;1.50;;;2.10;99.90;;;;;;4913517;29;20039;-94
2021/12/07 04:00:10;;;;;;;12.48;1.95;;;2.10;99.90;;;;;;4929770;29;20035;-93
2021/12/07 04:02:40;;;;;;;14.43;1.70;;;2.10;99.90;;;;;;4898530;29;20115;-95
2021/12/07 04:05:15;;;;;;;11.20;1.63;;;2.10;99.90;;;;;;4913037;29;20059;-93
2021/12/07 04:07:44;;;;;;;10.98;1.40;;;2.10;99.90;;;;;;4911841;29;20095;-94
2021/12/07 04:10:14;;;;;;;10.52;1.77;;;2.00;99.90;;;;;;4912329;29;20060;-94
2021/12/07 04:12:43;;;;;;;8.02;1.52;;;2.00;99.90;;;;;;4897820;29;20043;-95
2021/12/07 04:15:14;;;;;;;5.28;1.60;;;2.00;99.90;;;;;;4913315;29;20032;-95
2021/12/07 04:17:40;;;;;;;7.00;1.45;;;2.00;99.90;;;;;;4896832;29;20066;-95
2021/12/07 04:20:08;;;;;;;7.93;2.22;;;2.10;99.90;;;;;;4921506;29;20048;-94
2021/12/07 04:22:39;;;;;;;16.17;1.92;;;2.00;99.90;;;;;;4934539;29;20024;-94
2021/12/07 04:25:08;;;;;;;10.07;1.80;;;2.00;99.90;;;;;;4934689;29;20035;-94
2021/12/07 04:27:39;;;;;;;6.70;1.35;;;2.00;99.90;;;;;;4933657;29;20064;-93
2021/12/07 04:30:13;;;;;;;12.48;1.65;;;2.00;99.90;;;;;;4931818;29;20048;-93
2021/12/07 04:32:40;;;;;;;12.35;1.40;;;2.00;99.90;;;;;;4932466;29;20028;-94
2021/12/07 04:35:09;;;;;;;8.15;1.60;;;2.00;99.90;;;;;;4932980;29;20141;-94
2021/12/07 04:37:35;;;;;;;6.78;1.40;;;2.00;99.90;;;;;;4914679;29;20089;-93
2021/12/07 04:40:01;;;;;;;6.60;2.97;;;2.00;99.90;;;;;;4927918;29;20028;-92
2021/12/07 04:42:29;;;;;;;6.90;1.40;;;2.00;99.90;;;;;;4926671;29;20044;-95
2021/12/07 04:44:59;;;;;;;8.55;1.60;;;2.00;99.90;;;;;;4926306;29;20029;-93
2021/12/07 04:50:41;;;;;;;8.18;1.40;;;2.00;99.90;;;;;;4909607;29;20092;-94
2021/12/07 04:58:41;;;;;;;7.90;1.45;;;2.00;99.90;;;;;;4932765;29;20039;-94
2021/12/07 05:01:12;;;;;;;9.85;1.50;;;2.00;99.90;;;;;;4931472;29;20032;-94
2021/12/07 05:03:41;;;;;;;9.93;1.35;;;2.00;99.90;;;;;;4918847;29;20028;-94
2021/12/07 05:06:10;;;;;;;8.93;1.35;;;2.00;99.90;;;;;;4918362;29;20048;-94
2021/12/07 05:08:50;;;;;;;7.68;1.83;;;2.00;99.90;;;;;;4937131;29;20031;-94
2021/12/07 05:14:18;;;;;;;19.92;1.65;;;2.00;99.90;;;;;;4936082;29;20553;-94
2021/12/07 05:17:12;;;;;;;16.73;1.92;;;2.10;99.90;;;;;;4932039;29;20056;-94
2021/12/07 05:26:00;;;;;;;8.55;1.45;;;2.10;99.90;;;;;;4936450;29;20067;-94
2021/12/07 05:39:07;;;;;;;10.68;1.38;;;2.00;99.90;;;;;;4927110;29;20060;-94
2021/12/07 05:41:33;;;;;;;10.18;1.67;;;2.00;99.90;;;;;;4924686;29;20035;-94
2021/12/07 05:44:03;;;;;;;11.77;1.90;;;2.00;99.90;;;;;;4926610;29;20021;-93
2021/12/07 05:46:29;;;;;;;14.65;2.10;;;1.90;99.90;;;;;;4926838;29;20032;-93
2021/12/07 05:48:58;;;;;;;8.68;1.48;;;1.90;99.90;;;;;;4924467;29;20088;-93
2021/12/07 05:51:25;;;;;;;13.27;1.10;;;2.00;99.90;;;;;;4926209;29;20036;-94
2021/12/07 05:53:51;;;;;;;7.50;1.50;;;1.90;99.90;;;;;;4932684;29;20016;-94
2021/12/07 05:56:27;;;;;;;11.38;1.80;;;1.90;99.90;;;;;;4932661;29;20103;-95
2021/12/07 05:58:54;;;;;;;13.90;1.60;;;1.90;99.90;;;;;;4930253;29;20028;-94
2021/12/07 06:02:02;;;;;;;9.07;1.30;;;1.90;99.90;;;;;;4932462;29;20091;-93
2021/12/07 06:04:30;;;;;;;7.13;1.38;;;1.90;99.90;;;;;;4931769;29;20126;-94
2021/12/07 06:07:00;;;;;;;14.07;1.50;;;1.90;99.90;;;;;;4921030;29;20020;-94
2021/12/07 06:09:30;;;;;;;13.30;1.70;;;1.90;99.90;;;;;;4925781;29;20032;-94
2021/12/07 06:11:57;;;;;;;9.30;1.50;;;1.90;99.90;;;;;;4933578;29;20032;-94
2021/12/07 06:14:31;;;;;;;7.93;1.17;;;1.90;99.90;;;;;;4942252;29;20054;-95
2021/12/07 06:17:08;;;;;;;5.07;1.08;;;1.90;99.90;;;;;;4951513;29;20047;-94
2021/12/07 06:19:37;;;;;;;6.25;1.27;;;1.90;99.90;;;;;;4943678;29;20055;-94
2021/12/07 06:22:05;;;;;;;8.68;1.70;;;2.00;99.90;;;;;;4898539;29;20028;-95
2021/12/07 06:24:32;;;;;;;13.52;2.42;;;1.90;99.90;;;;;;4911612;29;20025;-94
2021/12/07 06:27:14;;;;;;;11.60;1.70;;;1.90;99.90;;;;;;4912864;29;20032;-93
2021/12/07 06:29:40;;;;;;;6.60;1.70;;;1.90;99.90;;;;;;4914956;29;20499;-95
2021/12/07 06:32:26;;;;;;;9.07;1.83;;;1.90;99.90;;;;;;4917303;29;20035;-95
2021/12/07 06:34:53;;;;;;;9.13;1.20;;;1.90;99.90;;;;;;4889953;29;20052;-95
2021/12/07 06:38:13;;;;;;;14.30;1.85;;;2.00;99.90;;;;;;4920575;29;20035;-95
2021/12/07 06:43:50;;;;;;;10.95;1.35;;;2.00;99.90;;;;;;4832224;29;20022;-95
2021/12/07 06:46:30;;;;;;;10.00;1.45;;;2.10;99.90;;;;;;4838498;29;20046;-95
2021/12/07 06:49:18;;;;;;;13.80;1.38;;;2.10;99.90;;;;;;4862202;29;20034;-95
2021/12/07 06:51:50;;;;;;;11.27;2.38;;;2.20;99.90;;;;;;4862715;29;20108;-95
2021/12/07 06:57:52;;;;;;;10.27;1.33;;;2.20;99.90;;;;;;4869271;29;20117;-95
2021/12/07 07:00:35;;;;;;;10.73;1.50;;;2.20;99.90;;;;;;4845743;29;20083;-94
2021/12/07 07:03:02;;;;;;;9.98;1.52;;;2.20;99.90;;;;;;4836398;29;20053;-95
2021/12/07 08:10:21;;;;;;;14.02;3.90;;;2.00;99.90;;;;;;5299268;23;20043;-95
2021/12/07 08:13:07;;;;;;;;;;;;;;;;;;;;;
2021/12/07 08:18:12;;;;;;;16.95;3.50;;;2.00;99.90;;;;;;5116215;23;20067;-95
2021/12/07 08:20:44;;;;;;;16.58;3.47;;;2.00;99.90;;;;;;4939260;29;20012;-94
2021/12/07 08:23:15;;;;;;;16.50;3.30;;;2.10;99.90;;;;;;4933804;29;20035;-95
2021/12/07 08:25:45;;;;;;;21.00;3.90;;;2.00;99.90;;;;;;4933760;29;20035;-96
2021/12/07 08:28:19;;;;;;;13.68;2.92;;;2.10;99.90;;;;;;4930719;29;20044;-96
2021/12/07 08:31:00;;;;;;;26.92;5.88;;;2.00;99.90;;;;;;4944905;29;20129;-95
2021/12/07 08:33:27;;;;;;;10.63;2.42;;;2.00;99.90;;;;;;4932904;29;20035;-95
2021/12/07 08:36:13;;;;;;;16.90;2.97;;;2.00;99.90;;;;;;4953766;29;20044;-96
2021/12/07 08:38:49;;;;;;;15.63;2.85;;;2.00;99.90;;;;;;4918745;29;20099;-95
2021/12/07 08:41:16;;;;;;;23.30;3.45;;;2.00;99.90;;;;;;4902520;29;20044;-95
2021/12/07 08:43:45;;;;;;;17.13;3.10;;;2.00;99.90;;;;;;4941995;29;20047;-96
2021/12/07 08:46:16;;;;;;;9.23;4.18;;;2.00;99.90;;;;;;4920085;29;20083;-94
2021/12/07 08:48:43;;;;;;;15.85;2.90;;;2.10;99.90;;;;;;4921276;29;20028;-96
2021/12/07 08:51:14;;;;;;;19.23;3.40;;;2.20;99.90;;;;;;4908209;29;20020;-96
2021/12/07 09:02:06;;;;;;;13.15;2.50;;;2.30;99.90;;;;;;4942040;29;20118;-96
2021/12/07 09:04:32;;;;;;;9.73;2.15;;;2.30;99.90;;;;;;4921512;29;20046;-94
2021/12/07 09:06:58;;;;;;;11.48;2.53;;;2.30;99.90;;;;;;4954209;29;20122;-95
2021/12/07 09:09:24;;;;;;;9.10;2.10;;;2.30;99.90;;;;;;4954762;29;20065;-94
2021/12/07 09:11:53;;;;;;;10.75;2.20;;;2.40;99.90;;;;;;4922897;29;20039;-96
2021/12/07 09:14:23;;;;;;;14.38;2.70;;;2.40;99.90;;;;;;4924311;29;20028;-95
2021/12/07 09:16:49;;;;;;;20.67;2.63;;;2.40;99.90;;;;;;4924245;29;20131;-95
2021/12/07 09:19:20;;;;;;;14.48;2.20;;;2.40;99.90;;;;;;4925769;29;20115;-95
2021/12/07 09:21:46;;;;;;;29.80;4.40;;;2.40;99.90;;;;;;4923771;29;20040;-95
2021/12/07 09:24:14;;;;;;;12.52;2.60;;;2.40;99.90;;;;;;4924541;29;20058;-95
2021/12/07 09:26:40;;;;;;;16.48;2.80;;;2.40;99.90;;;;;;4923948;29;20024;-95
2021/12/07 09:29:06;;;;;;;18.83;2.78;;;2.40;99.90;;;;;;4923433;29;20038;-95
2021/12/07 09:31:36;;;;;;;15.68;3.85;;;2.40;99.90;;;;;;4924276;29;20058;-96
2021/12/07 09:34:04;;;;;;;9.32;2.30;;;2.40;99.90;;;;;;4941742;29;20031;-95
2021/12/07 09:36:30;;;;;;;9.63;1.95;;;2.40;99.90;;;;;;4942206;29;20118;-95
2021/12/07 09:38:56;;;;;;;15.45;2.20;;;2.40;99.90;;;;;;4941370;29;20035;-94
2021/12/07 09:41:23;;;;;;;9.88;1.85;;;2.50;99.90;;;;;;4940893;29;20031;-95
2021/12/07 09:43:53;;;;;;;14.20;2.55;;;2.50;99.90;;;;;;4940919;29;20094;-94
2021/12/07 09:46:19;;;;;;;21.98;2.22;;;2.60;99.90;;;;;;4941717;29;20034;-94
2021/12/07 09:48:46;;;;;;;11.82;1.40;;;2.60;99.90;;;;;;4941705;29;20027;-94
2021/12/07 09:51:16;;;;;;;12.75;2.08;;;2.60;99.90;;;;;;4942194;29;20038;-96
2021/12/07 09:53:46;;;;;;;6.53;2.27;;;2.60;99.90;;;;;;4948179;29;20095;-95
2021/12/07 09:56:14;;;;;;;4.77;1.33;;;2.70;99.90;;;;;;4942259;29;20311;-94
2021/12/07 09:58:40;;;;;;;18.95;1.98;;;2.70;99.90;;;;;;4941158;29;20506;-95
2021/12/07 10:01:09;;;;;;;13.07;1.75;;;2.80;99.90;;;;;;4942010;29;20059;-94
2021/12/07 10:03:36;;;;;;;10.52;1.52;;;2.80;99.90;;;;;;4942594;29;20042;-94
2021/12/07 10:06:02;;;;;;;10.25;1.77;;;2.80;99.90;;;;;;4942762;29;20027;-95
2021/12/07 10:08:28;;;;;;;19.52;2.10;;;2.90;99.90;;;;;;4940019;29;20024;-96
2021/12/07 10:10:57;;;;;;;10.75;1.27;;;3.00;99.90;;;;;;4942735;29;20115;-96
2021/12/07 10:13:29;;;;;;;11.68;1.67;;;3.00;99.90;;;;;;4944505;29;20042;-94
2021/12/07 10:15:57;;;;;;;5.18;1.00;;;3.00;99.90;;;;;;4943762;29;20043;-94
2021/12/07 10:18:26;;;;;;;6.03;1.23;;;3.10;99.90;;;;;;4942876;29;20028;-95
2021/12/07 10:20:55;;;;;;;9.93;1.75;;;3.10;99.90;;;;;;4942916;29;20528;-94
2021/12/07 10:23:23;;;;;;;15.25;2.38;;;3.10;99.90;;;;;;4943042;29;20482;-95
2021/12/07 10:26:04;;;;;;;9.93;1.63;;;3.10;99.90;;;;;;4943261;29;20114;-96
2021/12/07 10:28:38;;;;;;;12.68;2.03;;;3.20;99.90;;;;;;4942830;29;20024;-93
2021/12/07 10:31:16;;;;;;;9.68;1.30;;;3.20;99.90;;;;;;4939023;29;20035;-96
2021/12/07 10:33:49;;;;;;;6.65;1.45;;;3.20;99.90;;;;;;4939761;29;20059;-96
2021/12/07 10:36:29;;;;;;;8.60;1.27;;;3.30;99.90;;;;;;4941699;29;20126;-95
2021/12/07 10:39:18;;;;;;;10.38;1.63;;;3.30;99.90;;;;;;4941085;29;20148;-94
2021/12/07 10:41:53;;;;;;;12.23;2.05;;;3.30;99.90;;;;;;4944641;29;20106;-96
2021/12/07 10:44:32;;;;;;;11.15;1.27;;;3.30;99.90;;;;;;4939907;29;20114;-94
2021/12/07 10:47:12;;;;;;;16.38;2.38;;;3.40;99.90;;;;;;4940289;29;20048;-93
2021/12/07 10:49:53;;;;;;;14.93;1.92;;;3.40;99.90;;;;;;4941738;29;20114;-94
2021/12/07 10:52:28;;;;;;;16.42;2.15;;;3.40;99.90;;;;;;4940730;29;20024;-96
2021/12/07 10:55:03;;;;;;;17.00;1.70;;;3.50;99.90;;;;;;4940038;29;20042;-94
2021/12/07 10:57:32;;;;;;;14.40;2.25;;;3.50;99.90;;;;;;4940408;29;20493;-95
2021/12/07 11:00:11;;;;;;;13.25;1.67;;;3.50;99.90;;;;;;4941761;29;20066;-95
2021/12/07 11:02:39;;;;;;;14.10;1.85;;;3.50;99.90;;;;;;4940672;29;20023;-94
2021/12/07 11:05:10;;;;;;;8.35;1.73;;;3.50;99.90;;;;;;4940683;29;20039;-96
2021/12/07 11:07:37;;;;;;;8.27;1.35;;;3.50;99.90;;;;;;4947998;29;20499;-93
2021/12/07 11:10:16;;;;;;;8.40;1.63;;;3.50;99.90;;;;;;4949980;29;20051;-94
2021/12/07 11:13:05;;;;;;;12.13;1.70;;;3.50;99.90;;;;;;4952315;29;20027;-95
2021/12/07 11:15:33;;;;;;;16.10;2.40;;;3.50;99.90;;;;;;4947962;29;20063;-96
2021/12/07 11:18:08;;;;;;;13.40;1.80;;;3.50;99.90;;;;;;4941627;29;20127;-95
2021/12/07 11:20:36;;;;;;;12.75;2.30;;;3.50;99.90;;;;;;4943036;29;20027;-96
2021/12/07 11:23:31;;;;;;;9.57;1.88;;;3.50;99.90;;;;;;4941706;29;20028;-94
2021/12/07 11:31:51;;;;;;;10.48;1.80;;;3.50;99.90;;;;;;4944202;29;20512;-95
2021/12/07 11:34:36;;;;;;;7.45;1.58;;;3.60;99.90;;;;;;4941161;29;20023;-94
2021/12/07 11:37:11;;;;;;;13.38;1.92;;;3.70;99.90;;;;;;4940950;29;20490;-96
2021/12/07 11:39:48;;;;;;;10.98;1.65;;;3.70;99.90;;;;;;4940612;29;20028;-96
2021/12/07 11:42:22;;;;;;;4.40;1.20;;;3.70;99.90;;;;;;4938713;29;20113;-92
2021/12/07 11:45:13;;;;;;;16.33;2.20;;;3.70;99.90;;;;;;4938763;29;20103;-96
2021/12/07 11:47:43;;;;;;;14.43;1.73;;;3.70;99.90;;;;;;4939507;29;20059;-96
2021/12/07 11:50:38;;;;;;;8.85;1.83;;;3.80;99.90;;;;;;4941084;29;20047;-94
2021/12/07 11:53:15;;;;;;;8.88;2.15;;;3.80;99.90;;;;;;4940889;29;20028;-94
2021/12/07 11:55:45;;;;;;;10.27;2.03;;;3.90;99.90;;;;;;4939854;29;20051;-94
2021/12/07 11:58:11;;;;;;;13.65;2.55;;;4.00;99.90;;;;;;4938609;29;20024;-95
2021/12/07 12:00:48;;;;;;;8.80;1.95;;;4.00;99.90;;;;;;4940128;29;20032;-95
2021/12/07 12:03:18;;;;;;;9.30;1.77;;;4.10;99.90;;;;;;4940958;29;20046;-96
2021/12/07 12:05:46;;;;;;;27.65;2.80;;;4.20;99.90;;;;;;4940484;29;20076;-96
2021/12/07 12:08:14;;;;;;;10.90;2.15;;;4.20;99.90;;;;;;4940938;29;20031;-94
2021/12/07 12:10:44;;;;;;;20.48;2.40;;;4.20;99.90;;;;;;4938831;29;20035;-93
2021/12/07 12:13:56;;;;;;;17.50;2.38;;;4.30;99.90;;;;;;4938250;29;20130;-94
2021/12/07 12:16:29;;;;;;;10.23;2.70;;;4.30;99.90;;;;;;4917210;29;20049;-93
2021/12/07 12:19:29;;;;;;;8.98;2.17;;;4.40;99.90;;;;;;4940256;29;20031;-95
2021/12/07 12:22:22;;;;;;;6.50;2.13;;;4.40;99.90;;;;;;4939141;29;20032;-96
2021/12/07 12:24:51;;;;;;;13.90;1.77;;;4.40;99.90;;;;;;4938376;29;20039;-96
2021/12/07 12:27:27;;;;;;;11.30;2.63;;;4.40;99.90;;;;;;4939444;29;20027;-95
2021/12/07 12:29:54;;;;;;;13.20;2.10;;;4.40;99.90;;;;;;4938607;29;20024;-96
2021/12/07 12:32:33;;;;;;;12.45;3.42;;;4.40;99.90;;;;;;4939500;29;20034;-94
2021/12/07 12:35:00;;;;;;;10.68;2.05;;;4.40;99.90;;;;;;4938570;29;20047;-95
2021/12/07 12:37:31;;;;;;;13.05;2.85;;;4.40;99.90;;;;;;4937109;29;20040;-95
2021/12/07 12:40:08;;;;;;;12.50;2.85;;;4.40;99.90;;;;;;4938929;29;20027;-95
2021/12/07 12:42:47;;;;;;;10.57;2.10;;;4.40;99.90;;;;;;4938650;29;20096;-95
2021/12/07 12:45:27;;;;;;;11.27;2.20;;;4.40;99.90;;;;;;4939730;29;20083;-94
2021/12/07 12:47:59;;;;;;;7.20;2.50;;;4.40;99.90;;;;;;4940980;29;20082;-95
2021/12/07 12:50:33;;;;;;;12.90;2.47;;;4.40;99.90;;;;;;4941182;29;20067;-95
2021/12/07 12:53:04;;;;;;;11.90;2.42;;;4.50;99.90;;;;;;4940791;29;20043;-95
2021/12/07 12:55:43;;;;;;;5.65;2.03;;;4.50;99.90;;;;;;4941215;29;20069;-95
2021/12/07 12:58:20;;;;;;;10.60;2.53;;;4.50;99.90;;;;;;4942704;29;20059;-96
2021/12/07 13:01:17;;;;;;;10.60;2.67;;;4.50;99.90;;;;;;4943728;29;20038;-96
2021/12/07 13:03:59;;;;;;;6.95;2.13;;;4.60;99.90;;;;;;4942552;29;20454;-95
2021/12/07 13:06:37;;;;;;;7.35;1.83;;;4.60;99.90;;;;;;4941643;29;20027;-96
2021/12/07 13:09:18;;;;;;;13.13;2.67;;;4.60;99.90;;;;;;4943472;29;20031;-95
2021/12/07 13:12:03;;;;;;;11.82;2.22;;;4.60;99.90;;;;;;4944294;29;20031;-96
2021/12/07 13:14:56;;;;;;;6.07;2.30;;;4.70;99.90;;;;;;4941995;29;20027;-96
2021/12/07 13:17:42;;;;;;;9.82;2.65;;;4.70;99.90;;;;;;4942973;29;20383;-93
2021/12/07 13:20:29;;;;;;;10.10;2.47;;;4.70;99.90;;;;;;4945557;29;20038;-95
2021/12/07 13:23:13;;;;;;;6.63;3.13;;;4.70;99.90;;;;;;4942919;29;20054;-96
2021/12/07 13:25:41;;;;;;;5.28;2.20;;;4.70;99.90;;;;;;4939545;28;20023;-94
2021/12/07 13:28:18;;;;;;;11.55;2.17;;;4.70;99.90;;;;;;4942163;29;20336;-92
2021/12/07 13:30:58;;;;;;;10.32;1.30;;;4.70;99.90;;;;;;4942756;29;20118;-95
2021/12/07 13:33:49;;;;;;;9.45;2.45;;;4.70;99.90;;;;;;4943161;29;20043;-94
2021/12/07 13:36:33;;;;;;;19.10;3.20;;;4.70;99.90;;;;;;4942542;29;20049;-95
2021/12/07 13:39:08;;;;;;;11.82;2.50;;;4.70;99.90;;;;;;4943739;29;20385;-93
2021/12/07 13:41:34;;;;;;;9.48;2.40;;;4.70;99.90;;;;;;4944059;29;20031;-94
2021/12/07 13:44:00;;;;;;;7.78;1.70;;;4.70;99.90;;;;;;4943470;29;20123;-95
2021/12/07 13:46:27;;;;;;;12.13;3.20;;;4.70;99.90;;;;;;4943326;29;20043;-95
2021/12/07 13:49:07;;;;;;;5.05;1.60;;;4.70;99.90;;;;;;4943151;29;20027;-93
2021/12/07 13:51:33;;;;;;;9.73;2.80;;;4.70;99.90;;;;;;4943823;29;20086;-95
2021/12/07 13:54:01;;;;;;;10.18;2.72;;;4.70;99.90;;;;;;4946304;29;20028;-95
2021/12/07 13:56:32;;;;;;;11.35;2.22;;;4.70;99.90;;;;;;4943338;29;20167;-95
2021/12/07 13:59:06;;;;;;;10.57;2.33;;;4.70;99.90;;;;;;4943871;29;20026;-95
2021/12/07 14:01:36;;;;;;;5.00;1.83;;;4.70;99.90;;;;;;4943453;29;20035;-95
2021/12/07 14:04:09;;;;;;;4.07;1.95;;;4.80;99.90;;;;;;4946285;29;20024;-95
2021/12/07 14:06:38;;;;;;;5.35;1.83;;;4.80;99.90;;;;;;4949504;29;20039;-96
2021/12/07 14:09:12;;;;;;;6.15;1.90;;;4.80;99.90;;;;;;4947830;29;20098;-96
2021/12/07 14:11:39;;;;;;;12.38;2.45;;;4.80;99.90;;;;;;4967554;29;20055;-95
2021/12/07 14:14:11;;;;;;;7.75;1.27;;;4.80;99.90;;;;;;4951924;29;20027;-95
2021/12/07 14:16:38;;;;;;;4.18;1.80;;;4.70;99.90;;;;;;4950591;29;20497;-94
2021/12/07 14:19:03;;;;;;;4.13;1.60;;;4.80;99.90;;;;;;4946928;29;20027;-95
2021/12/07 14:21:30;;;;;;;8.15;1.80;;;4.80;99.90;;;;;;4945082;29;20038;-95
2021/12/07 14:24:05;;;;;;;5.75;2.00;;;4.80;99.90;;;;;;4944303;29;20073;-96
2021/12/07 14:26:36;;;;;;;5.43;1.77;;;4.80;99.90;;;;;;4944288;29;20023;-95
2021/12/07 14:29:11;;;;;;;7.57;1.60;;;4.80;99.90;;;;;;4946096;29;20027;-93
2021/12/07 14:31:38;;;;;;;4.50;1.77;;;4.90;99.90;;;;;;4945786;29;20028;-93
2021/12/07 14:34:12;;;;;;;7.45;2.28;;;4.90;99.90;;;;;;4942556;29;20102;-96
2021/12/07 14:36:44;;;;;;;6.90;2.20;;;4.90;99.90;;;;;;4943178;29;20046;-95
2021/12/07 14:39:21;;;;;;;5.97;1.60;;;4.90;99.90;;;;;;4944327;29;20030;-94
2021/12/07 14:41:51;;;;;;;6.03;2.15;;;4.90;99.90;;;;;;4946723;29;20038;-95
2021/12/07 14:44:22;;;;;;;6.72;2.63;;;4.90;99.90;;;;;;4945381;29;20075;-95
2021/12/07 14:46:50;;;;;;;7.15;2.35;;;5.00;99.90;;;;;;4944491;29;20099;-95
2021/12/07 14:49:16;;;;;;;6.00;2.13;;;5.00;99.90;;;;;;4943905;29;20077;-95
2021/12/07 14:51:44;;;;;;;6.65;2.92;;;5.00;99.90;;;;;;4946768;29;20058;-95
2021/12/07 14:54:15;;;;;;;5.00;2.45;;;5.00;99.90;;;;;;4945630;29;20501;-95
2021/12/07 14:59:19;;;;;;;7.75;2.22;;;5.00;99.90;;;;;;5011774;23;20067;-94
2021/12/07 15:01:54;;;;;;;7.55;1.20;;;5.00;99.90;;;;;;4908847;29;20055;-95
2021/12/07 15:04:22;;;;;;;4.50;1.35;;;4.90;99.90;;;;;;4909034;29;20032;-95
2021/12/07 15:06:51;;;;;;;7.95;1.55;;;4.80;99.90;;;;;;4915485;29;20028;-95
2021/12/07 15:09:25;;;;;;;11.18;1.42;;;4.70;99.90;;;;;;4918697;29;20031;-95
2021/12/07 15:11:52;;;;;;;8.50;1.73;;;4.60;99.90;;;;;;4915379;29;20040;-95
2021/12/07 15:14:23;;;;;;;12.68;2.28;;;4.50;99.90;;;;;;4889599;29;20158;-95
2021/12/07 15:16:59;;;;;;;15.95;2.08;;;4.50;99.90;;;;;;4903532;29;20056;-95
2021/12/07 15:19:26;;;;;;;10.63;1.33;;;4.40;99.90;;;;;;4904057;29;20028;-94
2021/12/07 15:21:53;;;;;;;10.70;1.95;;;4.40;99.90;;;;;;4903277;29;20124;-94
2021/12/07 15:24:22;;;;;;;13.15;1.83;;;4.30;99.90;;;;;;4903300;29;20030;-95
2021/12/07 15:26:51;;;;;;;11.38;1.88;;;4.20;99.90;;;;;;4904138;29;20036;-94
2021/12/07 15:29:19;;;;;;;10.77;1.50;;;4.20;99.90;;;;;;4920474;29;20028;-94
2021/12/07 15:31:52;;;;;;;13.68;1.40;;;4.20;99.90;;;;;;4922182;29;20043;-95
2021/12/07 15:34:21;;;;;;;22.95;3.67;;;4.20;99.90;;;;;;4921927;29;20024;-96
2021/12/07 15:36:54;;;;;;;8.63;1.27;;;4.10;99.90;;;;;;4921574;29;20039;-94
2021/12/07 15:39:33;;;;;;;12.77;1.80;;;4.20;99.90;;;;;;4922298;29;20051;-94
2021/12/07 15:42:06;;;;;;;13.75;1.55;;;4.20;99.90;;;;;;4921714;29;20061;-95
2021/12/07 15:44:35;;;;;;;11.40;1.63;;;4.10;99.90;;;;;;4921718;29;20036;-94
2021/12/07 15:47:25;;;;;;;10.85;1.80;;;4.10;99.90;;;;;;4922052;29;20028;-94
2021/12/07 15:49:57;;;;;;;11.50;1.58;;;4.10;99.90;;;;;;4917826;29;20040;-95
2021/12/07 15:52:45;;;;;;;8.85;1.40;;;4.10;99.90;;;;;;4922004;29;20032;-96
2021/12/07 15:55:15;;;;;;;11.00;1.58;;;4.10;99.90;;;;;;4920884;29;20042;-94
2021/12/07 15:57:48;;;;;;;11.32;2.20;;;4.10;99.90;;;;;;4921609;29;20126;-93
2021/12/07 16:00:30;;;;;;;9.18;1.50;;;4.10;99.90;;;;;;4922244;29;20035;-93
2021/12/07 16:03:02;;;;;;;10.05;2.38;;;4.10;99.90;;;;;;4921942;29;20343;-93
2021/12/07 16:05:36;;;;;;;13.57;2.15;;;4.10;99.90;;;;;;4922363;29;20039;-92
2021/12/07 16:08:12;;;;;;;15.85;1.65;;;4.10;99.90;;;;;;4922069;29;20115;-92
2021/12/07 16:10:40;;;;;;;14.93;1.77;;;4.10;99.90;;;;;;4921451;29;20044;-94
2021/12/07 16:13:18;;;;;;;10.90;2.00;;;4.10;99.90;;;;;;4924610;29;20056;-95
2021/12/07 16:15:59;;;;;;;17.83;5.43;;;4.10;99.90;;;;;;4927039;29;20042;-94
2021/12/07 16:18:32;;;;;;;22.98;4.35;;;4.10;99.90;;;;;;4924082;29;20070;-95
2021/12/07 16:21:04;;;;;;;19.52;2.58;;;4.10;99.90;;;;;;4924381;29;20035;-92
2021/12/07 16:23:33;;;;;;;13.35;2.80;;;4.10;99.90;;;;;;4922166;29;20028;-93
2021/12/07 16:25:59;;;;;;;13.93;3.13;;;4.00;99.90;;;;;;4921487;29;20028;-93
2021/12/07 16:28:25;;;;;;;13.43;2.67;;;4.00;99.90;;;;;;4921724;29;20067;-92
2021/12/07 16:30:51;;;;;;;16.10;3.67;;;4.00;99.90;;;;;;4921968;29;20122;-94
2021/12/07 16:33:17;;;;;;;15.90;3.08;;;4.00;99.90;;;;;;4924733;29;20024;-94
2021/12/07 16:35:43;;;;;;;15.57;2.92;;;4.00;99.90;;;;;;4925439;29;20078;-94
2021/12/07 16:38:12;;;;;;;17.83;3.42;;;4.10;99.90;;;;;;4923645;29;20028;-93
2021/12/07 16:40:40;;;;;;;12.52;2.70;;;4.10;99.90;;;;;;4927978;29;20059;-93
2021/12/07 16:43:07;;;;;;;16.48;3.03;;;4.20;99.90;;;;;;4926864;29;20044;-94
2021/12/07 16:45:38;;;;;;;14.73;2.72;;;4.20;99.90;;;;;;4929251;29;20027;-96
2021/12/07 16:48:10;;;;;;;18.38;2.42;;;4.20;99.90;;;;;;4928590;29;20043;-94
2021/12/07 16:53:52;;;;;;;19.98;2.47;;;4.40;99.90;;;;;;5017807;23;20131;31
2021/12/07 16:56:18;;;;;;;11.32;2.15;;;4.50;99.90;;;;;;4872370;29;20057;-95
2021/12/07 16:58:44;;;;;;;20.30;3.03;;;4.60;99.90;;;;;;4872294;29;20123;-96
2021/12/07 17:01:10;;;;;;;14.43;3.05;;;4.60;99.90;;;;;;4873385;29;20033;-93
2021/12/07 17:03:38;;;;;;;14.85;2.20;;;4.60;99.90;;;;;;4869989;29;20069;-94
2021/12/07 17:06:07;;;;;;;16.90;2.30;;;4.60;99.90;;;;;;4872767;29;20040;-96
2021/12/07 17:08:38;;;;;;;19.63;3.00;;;4.70;99.90;;;;;;4872545;29;20029;-95
2021/12/07 17:11:04;;;;;;;21.75;2.70;;;4.70;99.90;;;;;;4870951;29;20482;-94
2021/12/07 17:13:30;;;;;;;17.85;2.03;;;4.70;99.90;;;;;;4871247;29;20040;-95
2021/12/07 17:15:56;;;;;;;21.58;2.58;;;4.70;99.90;;;;;;4868567;29;20037;-94
2021/12/07 17:18:23;;;;;;;17.45;3.72;;;4.60;99.90;;;;;;4871968;29;20047;-96
2021/12/07 17:20:50;;;;;;;23.65;2.95;;;4.60;99.90;;;;;;4869285;29;20033;-94
2021/12/07 17:23:16;;;;;;;19.95;2.95;;;4.60;99.90;;;;;;4867119;29;20040;-95
2021/12/07 17:25:42;;;;;;;12.05;2.50;;;4.60;99.90;;;;;;4871900;29;20052;-93
2021/12/07 17:28:08;;;;;;;17.65;2.65;;;4.60;99.90;;;;;;4873006;29;20033;-96